Acapulco — DJ5012 — position and weather

sailwx.info

Track history (hours):
 
Tides and Currents Weather Stations Pressure Air Temp Water Temp Dewpoint Dewpoint Depression Visibility Wind Speed Wind Dir Waves Ship Positions

Acapulco

Last reported at 2018-Jan-25 17:06 UTC. Time now 2018-Feb-20 17:51 UTC.
Position N 14°18' W 060°56'.
Warning: this ship's position is 26 days out of date.

Length 17 m.

Type: Sailing vessel. MMSI: 211543370.

Date/timePositionNaut miles runAvg speedWind from/ knotsBaromVisibWave heightAir tempDewpointWater temp
2018-Jan-25 17:06N 14°18' W 060°56'1 6.4
2018-Jan-25 16:59N 14°19' W 060°56'3 6.6
2018-Jan-25 16:30N 14°22' W 060°55'3 6.4
2018-Jan-25 16:00N 14°25' W 060°54'3 6.1
2018-Jan-25 15:30N 14°27' W 060°53'1 1.4
2018-Jan-25 14:59N 14°28' W 060°52'0 0.0
2018-Jan-25 14:29N 14°28' W 060°52'0 0.0
2018-Jan-25 13:59N 14°28' W 060°52'0 0.0
2018-Jan-25 13:29N 14°28' W 060°52'0 0.0
2018-Jan-25 12:59N 14°28' W 060°52'0 0.0
2018-Jan-25 12:29N 14°28' W 060°52'0 0.0
2018-Jan-25 11:59N 14°28' W 060°52'0 0.0
2018-Jan-25 11:29N 14°28' W 060°52'0 0.0
2018-Jan-25 10:59N 14°28' W 060°52'0 0.0
2018-Jan-25 10:29N 14°28' W 060°52'0 0.0
2018-Jan-25 09:59N 14°28' W 060°52'0 0.0
2018-Jan-25 09:29N 14°28' W 060°52'0 0.0
2018-Jan-25 08:59N 14°28' W 060°52'0 0.0
2018-Jan-25 08:29N 14°28' W 060°52'0 0.0
2018-Jan-25 07:59N 14°28' W 060°52'0 0.0
2018-Jan-25 07:26N 14°28' W 060°52'0 0.0
2018-Jan-25 06:59N 14°28' W 060°52'0 0.0
2018-Jan-25 06:29N 14°28' W 060°52'0 0.0
2018-Jan-25 05:59N 14°28' W 060°52'0 0.0
2018-Jan-25 05:29N 14°28' W 060°52'0 0.0
2018-Jan-25 04:59N 14°28' W 060°52'0 0.0
2018-Jan-25 04:29N 14°28' W 060°52'0 0.0
2018-Jan-25 03:59N 14°28' W 060°52'0 0.0
2018-Jan-25 03:29N 14°28' W 060°52'0 0.0
2018-Jan-25 02:59N 14°28' W 060°52'0 0.0
2018-Jan-25 02:29N 14°28' W 060°52'0 0.0
2018-Jan-25 01:59N 14°28' W 060°52'0 0.0
2018-Jan-25 01:29N 14°28' W 060°52'0 0.0
2018-Jan-25 00:56N 14°28' W 060°52'0 0.0
2018-Jan-25 00:29N 14°28' W 060°52'0 0.0
2018-Jan-24 23:59N 14°28' W 060°52'0 0.0
2018-Jan-24 23:29N 14°28' W 060°52'0 0.0
2018-Jan-24 22:56N 14°28' W 060°52'0 0.0
2018-Jan-24 22:29N 14°28' W 060°52'0 0.0
2018-Jan-24 21:00N 14°28' W 060°52'0 0.0
2018-Jan-24 20:26N 14°28' W 060°52'0 0.0
2018-Jan-24 19:53N 14°28' W 060°52'0 0.0
2018-Jan-24 19:29N 14°28' W 060°52'0 0.0
2018-Jan-24 18:53N 14°28' W 060°52'0 0.0
2018-Jan-24 18:29N 14°28' W 060°52'0 0.0
2018-Jan-24 17:59N 14°28' W 060°52'0 0.0
2018-Jan-24 17:29N 14°28' W 060°52'0 0.0
2018-Jan-24 16:59N 14°28' W 060°52'0 0.0
2018-Jan-24 16:29N 14°28' W 060°52'0 0.2
2018-Jan-24 16:00N 14°28' W 060°52'2 4.1
2018-Jan-24 15:28N 14°26' W 060°53'0 0.0
2018-Jan-24 14:58N 14°26' W 060°53'0 0.0
2018-Jan-24 14:28N 14°26' W 060°53'0 0.0
2018-Jan-24 13:58N 14°26' W 060°53'0 0.0
2018-Jan-24 13:19N 14°26' W 060°53'0 0.0
2018-Jan-23 21:56N 14°26' W 060°53'2 4.6
2018-Jan-23 21:30N 14°25' W 060°55'4 7.1
2018-Jan-23 21:00N 14°22' W 060°56'4 7.3
2018-Jan-23 20:29N 14°18' W 060°57'2 0.0
2018-Jan-21 18:28N 14°16' W 060°57'3 6.7
2018-Jan-21 18:00N 14°19' W 060°56'3 6.8
2018-Jan-21 17:30N 14°22' W 060°55'4 7.2
2018-Jan-21 17:00N 14°26' W 060°54'2 4.6
2018-Jan-21 16:30N 14°28' W 060°53'1 1.0
2018-Jan-21 15:59N 14°28' W 060°52'0 0.0
2018-Jan-21 15:29N 14°28' W 060°52'0 0.0
2018-Jan-21 14:59N 14°28' W 060°52'0 0.0
2018-Jan-21 14:29N 14°28' W 060°52'0 0.7
2018-Jan-21 13:58N 14°28' W 060°52'0 0.0
2018-Jan-21 13:28N 14°28' W 060°52'0 0.0
2018-Jan-21 12:58N 14°28' W 060°52'0 0.0
2018-Jan-21 12:28N 14°28' W 060°52'0 0.0
2018-Jan-21 11:58N 14°28' W 060°52'0 0.0
2018-Jan-21 11:28N 14°28' W 060°52'0 0.0
2018-Jan-21 10:58N 14°28' W 060°52'0 0.0
2018-Jan-21 10:28N 14°28' W 060°52'0 0.0
2018-Jan-21 09:58N 14°28' W 060°52'0 0.0
2018-Jan-21 09:22N 14°28' W 060°52'0 0.0
2018-Jan-21 08:55N 14°28' W 060°52'0 0.0
2018-Jan-21 08:25N 14°28' W 060°52'0 0.0
2018-Jan-21 07:58N 14°28' W 060°52'0 0.0
2018-Jan-21 07:28N 14°28' W 060°52'0 0.0
2018-Jan-21 06:58N 14°28' W 060°52'0 0.0
2018-Jan-21 06:28N 14°28' W 060°52'0 0.0
2018-Jan-21 05:58N 14°28' W 060°52'0 0.0
2018-Jan-21 05:28N 14°28' W 060°52'0 0.0
2018-Jan-21 04:58N 14°28' W 060°52'0 0.0
2018-Jan-21 04:28N 14°28' W 060°52'0 0.0
2018-Jan-21 03:58N 14°28' W 060°52'0 0.0
2018-Jan-21 03:28N 14°28' W 060°52'0 0.0
2018-Jan-21 02:58N 14°28' W 060°52'0 0.0
2018-Jan-21 02:28N 14°28' W 060°52'0 0.0
2018-Jan-21 01:58N 14°28' W 060°52'0 0.0
2018-Jan-21 01:28N 14°28' W 060°52'0 0.0
2018-Jan-21 00:55N 14°28' W 060°52'0 0.0
2018-Jan-21 00:28N 14°28' W 060°52'0 0.0
2018-Jan-20 23:58N 14°28' W 060°52'0 0.0
2018-Jan-20 23:07N 14°28' W 060°52'0 0.0
2018-Jan-20 22:58N 14°28' W 060°52'0 0.0
2018-Jan-20 22:28N 14°28' W 060°52'0 0.0
2018-Jan-20 21:25N 14°28' W 060°52'0 0.0
2018-Jan-20 20:58N 14°28' W 060°52'0 0.0
2018-Jan-20 20:28N 14°28' W 060°52'0 0.0
2018-Jan-20 19:58N 14°28' W 060°52'0 0.0
2018-Jan-20 19:28N 14°28' W 060°52'0 0.0
2018-Jan-20 18:55N 14°28' W 060°52'0 0.0
2018-Jan-20 18:25N 14°28' W 060°52'0 0.0
2018-Jan-20 17:58N 14°28' W 060°52'0 0.0
2018-Jan-20 17:28N 14°28' W 060°52'0 0.0
2018-Jan-20 16:52N 14°28' W 060°52'0 0.0
2018-Jan-20 16:22N 14°28' W 060°52'0 0.0
2018-Jan-20 15:58N 14°28' W 060°52'0 0.0
2018-Jan-20 15:28N 14°28' W 060°52'0 0.0
2018-Jan-20 14:58N 14°28' W 060°52'0 0.0
2018-Jan-20 14:19N 14°28' W 060°52'0 0.0
2018-Jan-20 13:58N 14°28' W 060°52'0 0.0
2018-Jan-20 13:25N 14°28' W 060°52'0 0.0
2018-Jan-20 12:58N 14°28' W 060°52'0 0.0
2018-Jan-20 12:28N 14°28' W 060°52'0 0.0
2018-Jan-20 11:34N 14°28' W 060°52'0 0.0
2018-Jan-20 11:07N 14°28' W 060°52'0 0.0
2018-Jan-20 10:58N 14°28' W 060°52'0 0.0
2018-Jan-20 10:28N 14°28' W 060°52'0 0.0
2018-Jan-20 09:58N 14°28' W 060°52'0 0.0
2018-Jan-20 09:28N 14°28' W 060°52'0 0.0
2018-Jan-20 08:58N 14°28' W 060°52'0 0.0
2018-Jan-20 08:28N 14°28' W 060°52'0 0.0
2018-Jan-20 07:58N 14°28' W 060°52'0 0.0
2018-Jan-20 07:28N 14°28' W 060°52'0 0.0
2018-Jan-20 06:58N 14°28' W 060°52'0 0.0
2018-Jan-20 06:28N 14°28' W 060°52'0 0.0
2018-Jan-20 05:58N 14°28' W 060°52'0 0.0
2018-Jan-20 05:25N 14°28' W 060°52'0 0.0
2018-Jan-20 04:58N 14°28' W 060°52'0 0.0
2018-Jan-20 04:28N 14°28' W 060°52'0 0.0
2018-Jan-20 03:58N 14°28' W 060°52'0 0.0
2018-Jan-20 03:28N 14°28' W 060°52'0 0.0
2018-Jan-20 02:58N 14°28' W 060°52'0 0.0
2018-Jan-20 02:28N 14°28' W 060°52'0 0.0
2018-Jan-20 01:58N 14°28' W 060°52'0 0.0
2018-Jan-20 01:28N 14°28' W 060°52'0 0.0
2018-Jan-19 21:25N 14°28' W 060°52'0 0.0
2018-Jan-19 20:46N 14°28' W 060°52'0 0.0
2018-Jan-19 20:28N 14°28' W 060°52'0 0.0
2018-Jan-19 19:58N 14°28' W 060°52'0 0.0
2018-Jan-19 19:25N 14°28' W 060°52'0 0.0
2018-Jan-19 18:54N 14°28' W 060°52'0 0.0
2018-Jan-19 18:30N 14°28' W 060°52'0 0.0
2018-Jan-19 18:00N 14°28' W 060°52'0 0.0
2018-Jan-19 17:30N 14°28' W 060°52'0 0.0
2018-Jan-19 17:00N 14°28' W 060°52'0 0.0
2018-Jan-19 16:30N 14°28' W 060°52'0 0.0
2018-Jan-19 16:00N 14°28' W 060°52'0 0.0
2018-Jan-19 15:30N 14°28' W 060°52'0 0.2
2018-Jan-19 14:59N 14°28' W 060°52'1 2.6
2018-Jan-19 14:30N 14°27' W 060°53'1 2.5
2018-Jan-19 13:57N 14°26' W 060°53'0 0.0
2018-Jan-19 13:24N 14°26' W 060°53'0 0.0
2018-Jan-19 13:00N 14°26' W 060°53'0 0.0
2018-Jan-19 12:30N 14°26' W 060°53'0 0.0
2018-Jan-19 11:57N 14°26' W 060°53'0 0.0
2018-Jan-19 10:27N 14°26' W 060°53'0 0.0
2018-Jan-19 09:57N 14°26' W 060°53'0 0.0
2018-Jan-19 09:30N 14°26' W 060°53'0 0.0
2018-Jan-19 09:00N 14°26' W 060°53'0 0.0
2018-Jan-19 08:30N 14°26' W 060°53'0 0.0
2018-Jan-19 08:00N 14°26' W 060°53'0 0.0
2018-Jan-19 07:30N 14°26' W 060°53'0 0.0
2018-Jan-19 07:00N 14°26' W 060°53'0 0.0
2018-Jan-19 06:30N 14°26' W 060°53'0 0.0
2018-Jan-19 06:00N 14°26' W 060°53'0 0.0
2018-Jan-19 05:30N 14°26' W 060°53'0 0.0
2018-Jan-19 05:00N 14°26' W 060°53'0 0.0
2018-Jan-19 04:30N 14°26' W 060°53'0 0.0
2018-Jan-19 04:00N 14°26' W 060°53'0 0.0
2018-Jan-19 03:30N 14°26' W 060°53'0 0.0
2018-Jan-19 03:00N 14°26' W 060°53'0 0.0
2018-Jan-19 02:30N 14°26' W 060°53'0 0.0
2018-Jan-19 02:00N 14°26' W 060°53'0 0.0
2018-Jan-19 01:30N 14°26' W 060°53'0 0.0
2018-Jan-19 01:00N 14°26' W 060°53'0 0.0
2018-Jan-19 00:27N 14°26' W 060°53'0 0.0
2018-Jan-18 23:57N 14°26' W 060°53'0 0.0
2018-Jan-18 23:27N 14°26' W 060°53'0 0.0
2018-Jan-18 22:57N 14°26' W 060°53'0 0.0
2018-Jan-18 22:30N 14°26' W 060°53'0 0.0
2018-Jan-18 21:24N 14°26' W 060°53'1 3.3
2018-Jan-18 20:59N 14°24' W 060°53'1 1.7
2018-Jan-18 20:25N 14°24' W 060°53'0 0.0
2018-Jan-18 19:58N 14°24' W 060°53'0 0.0
2018-Jan-18 19:28N 14°24' W 060°53'0 0.0
2018-Jan-18 18:58N 14°24' W 060°53'0 0.0
2018-Jan-18 18:25N 14°24' W 060°53'2 4.5
2018-Jan-18 18:00N 14°22' W 060°53'3 6.8
2018-Jan-18 17:30N 14°19' W 060°53'  
Track history (hours):
 
Tides and Currents Weather Stations Pressure Air Temp Water Temp Dewpoint Dewpoint Depression Visibility Wind Speed Wind Dir Waves Ship Positions

Acapulco

Last reported at 2018-Jan-25 17:06 UTC. Time now 2018-Feb-20 17:51 UTC.
Position N 14°18' W 060°56'.
Warning: this ship's position is 26 days out of date.

Length 17 m.

Type: Sailing vessel. MMSI: 211543370.

Date/timePositionNaut miles runAvg speedWind from/ knotsBaromVisibWave heightAir tempDewpointWater temp
2018-Jan-25 17:06N 14°18' W 060°56'1 6.4
2018-Jan-25 16:59N 14°19' W 060°56'3 6.6
2018-Jan-25 16:30N 14°22' W 060°55'3 6.4
2018-Jan-25 16:00N 14°25' W 060°54'3 6.1
2018-Jan-25 15:30N 14°27' W 060°53'1 1.4
2018-Jan-25 14:59N 14°28' W 060°52'0 0.0
2018-Jan-25 14:29N 14°28' W 060°52'0 0.0
2018-Jan-25 13:59N 14°28' W 060°52'0 0.0
2018-Jan-25 13:29N 14°28' W 060°52'0 0.0
2018-Jan-25 12:59N 14°28' W 060°52'0 0.0
2018-Jan-25 12:29N 14°28' W 060°52'0 0.0
2018-Jan-25 11:59N 14°28' W 060°52'0 0.0
2018-Jan-25 11:29N 14°28' W 060°52'0 0.0
2018-Jan-25 10:59N 14°28' W 060°52'0 0.0
2018-Jan-25 10:29N 14°28' W 060°52'0 0.0
2018-Jan-25 09:59N 14°28' W 060°52'0 0.0
2018-Jan-25 09:29N 14°28' W 060°52'0 0.0
2018-Jan-25 08:59N 14°28' W 060°52'0 0.0
2018-Jan-25 08:29N 14°28' W 060°52'0 0.0
2018-Jan-25 07:59N 14°28' W 060°52'0 0.0
2018-Jan-25 07:26N 14°28' W 060°52'0 0.0
2018-Jan-25 06:59N 14°28' W 060°52'0 0.0
2018-Jan-25 06:29N 14°28' W 060°52'0 0.0
2018-Jan-25 05:59N 14°28' W 060°52'0 0.0
2018-Jan-25 05:29N 14°28' W 060°52'0 0.0
2018-Jan-25 04:59N 14°28' W 060°52'0 0.0
2018-Jan-25 04:29N 14°28' W 060°52'0 0.0
2018-Jan-25 03:59N 14°28' W 060°52'0 0.0
2018-Jan-25 03:29N 14°28' W 060°52'0 0.0
2018-Jan-25 02:59N 14°28' W 060°52'0 0.0
2018-Jan-25 02:29N 14°28' W 060°52'0 0.0
2018-Jan-25 01:59N 14°28' W 060°52'0 0.0
2018-Jan-25 01:29N 14°28' W 060°52'0 0.0
2018-Jan-25 00:56N 14°28' W 060°52'0 0.0
2018-Jan-25 00:29N 14°28' W 060°52'0 0.0
2018-Jan-24 23:59N 14°28' W 060°52'0 0.0
2018-Jan-24 23:29N 14°28' W 060°52'0 0.0
2018-Jan-24 22:56N 14°28' W 060°52'0 0.0
2018-Jan-24 22:29N 14°28' W 060°52'0 0.0
2018-Jan-24 21:00N 14°28' W 060°52'0 0.0
2018-Jan-24 20:26N 14°28' W 060°52'0 0.0
2018-Jan-24 19:53N 14°28' W 060°52'0 0.0
2018-Jan-24 19:29N 14°28' W 060°52'0 0.0
2018-Jan-24 18:53N 14°28' W 060°52'0 0.0
2018-Jan-24 18:29N 14°28' W 060°52'0 0.0
2018-Jan-24 17:59N 14°28' W 060°52'0 0.0
2018-Jan-24 17:29N 14°28' W 060°52'0 0.0
2018-Jan-24 16:59N 14°28' W 060°52'0 0.0
2018-Jan-24 16:29N 14°28' W 060°52'0 0.2
2018-Jan-24 16:00N 14°28' W 060°52'2 4.1
2018-Jan-24 15:28N 14°26' W 060°53'0 0.0
2018-Jan-24 14:58N 14°26' W 060°53'0 0.0
2018-Jan-24 14:28N 14°26' W 060°53'0 0.0
2018-Jan-24 13:58N 14°26' W 060°53'0 0.0
2018-Jan-24 13:19N 14°26' W 060°53'0 0.0
2018-Jan-23 21:56N 14°26' W 060°53'2 4.6
2018-Jan-23 21:30N 14°25' W 060°55'4 7.1
2018-Jan-23 21:00N 14°22' W 060°56'4 7.3
2018-Jan-23 20:29N 14°18' W 060°57'2 0.0
2018-Jan-21 18:28N 14°16' W 060°57'3 6.7
2018-Jan-21 18:00N 14°19' W 060°56'3 6.8
2018-Jan-21 17:30N 14°22' W 060°55'4 7.2
2018-Jan-21 17:00N 14°26' W 060°54'2 4.6
2018-Jan-21 16:30N 14°28' W 060°53'1 1.0
2018-Jan-21 15:59N 14°28' W 060°52'0 0.0
2018-Jan-21 15:29N 14°28' W 060°52'0 0.0
2018-Jan-21 14:59N 14°28' W 060°52'0 0.0
2018-Jan-21 14:29N 14°28' W 060°52'0 0.7
2018-Jan-21 13:58N 14°28' W 060°52'0 0.0
2018-Jan-21 13:28N 14°28' W 060°52'0 0.0
2018-Jan-21 12:58N 14°28' W 060°52'0 0.0
2018-Jan-21 12:28N 14°28' W 060°52'0 0.0
2018-Jan-21 11:58N 14°28' W 060°52'0 0.0
2018-Jan-21 11:28N 14°28' W 060°52'0 0.0
2018-Jan-21 10:58N 14°28' W 060°52'0 0.0
2018-Jan-21 10:28N 14°28' W 060°52'0 0.0
2018-Jan-21 09:58N 14°28' W 060°52'0 0.0
2018-Jan-21 09:22N 14°28' W 060°52'0 0.0
2018-Jan-21 08:55N 14°28' W 060°52'0 0.0
2018-Jan-21 08:25N 14°28' W 060°52'0 0.0
2018-Jan-21 07:58N 14°28' W 060°52'0 0.0
2018-Jan-21 07:28N 14°28' W 060°52'0 0.0
2018-Jan-21 06:58N 14°28' W 060°52'0 0.0
2018-Jan-21 06:28N 14°28' W 060°52'0 0.0
2018-Jan-21 05:58N 14°28' W 060°52'0 0.0
2018-Jan-21 05:28N 14°28' W 060°52'0 0.0
2018-Jan-21 04:58N 14°28' W 060°52'0 0.0
2018-Jan-21 04:28N 14°28' W 060°52'0 0.0
2018-Jan-21 03:58N 14°28' W 060°52'0 0.0
2018-Jan-21 03:28N 14°28' W 060°52'0 0.0
2018-Jan-21 02:58N 14°28' W 060°52'0 0.0
2018-Jan-21 02:28N 14°28' W 060°52'0 0.0
2018-Jan-21 01:58N 14°28' W 060°52'0 0.0
2018-Jan-21 01:28N 14°28' W 060°52'0 0.0
2018-Jan-21 00:55N 14°28' W 060°52'0 0.0
2018-Jan-21 00:28N 14°28' W 060°52'0 0.0
2018-Jan-20 23:58N 14°28' W 060°52'0 0.0
2018-Jan-20 23:07N 14°28' W 060°52'0 0.0
2018-Jan-20 22:58N 14°28' W 060°52'0 0.0
2018-Jan-20 22:28N 14°28' W 060°52'0 0.0
2018-Jan-20 21:25N 14°28' W 060°52'0 0.0
2018-Jan-20 20:58N 14°28' W 060°52'0 0.0
2018-Jan-20 20:28N 14°28' W 060°52'0 0.0
2018-Jan-20 19:58N 14°28' W 060°52'0 0.0
2018-Jan-20 19:28N 14°28' W 060°52'0 0.0
2018-Jan-20 18:55N 14°28' W 060°52'0 0.0
2018-Jan-20 18:25N 14°28' W 060°52'0 0.0
2018-Jan-20 17:58N 14°28' W 060°52'0 0.0
2018-Jan-20 17:28N 14°28' W 060°52'0 0.0
2018-Jan-20 16:52N 14°28' W 060°52'0 0.0
2018-Jan-20 16:22N 14°28' W 060°52'0 0.0
2018-Jan-20 15:58N 14°28' W 060°52'0 0.0
2018-Jan-20 15:28N 14°28' W 060°52'0 0.0
2018-Jan-20 14:58N 14°28' W 060°52'0 0.0
2018-Jan-20 14:19N 14°28' W 060°52'0 0.0
2018-Jan-20 13:58N 14°28' W 060°52'0 0.0
2018-Jan-20 13:25N 14°28' W 060°52'0 0.0
2018-Jan-20 12:58N 14°28' W 060°52'0 0.0
2018-Jan-20 12:28N 14°28' W 060°52'0 0.0
2018-Jan-20 11:34N 14°28' W 060°52'0 0.0
2018-Jan-20 11:07N 14°28' W 060°52'0 0.0
2018-Jan-20 10:58N 14°28' W 060°52'0 0.0
2018-Jan-20 10:28N 14°28' W 060°52'0 0.0
2018-Jan-20 09:58N 14°28' W 060°52'0 0.0
2018-Jan-20 09:28N 14°28' W 060°52'0 0.0
2018-Jan-20 08:58N 14°28' W 060°52'0 0.0
2018-Jan-20 08:28N 14°28' W 060°52'0 0.0
2018-Jan-20 07:58N 14°28' W 060°52'0 0.0
2018-Jan-20 07:28N 14°28' W 060°52'0 0.0
2018-Jan-20 06:58N 14°28' W 060°52'0 0.0
2018-Jan-20 06:28N 14°28' W 060°52'0 0.0
2018-Jan-20 05:58N 14°28' W 060°52'0 0.0
2018-Jan-20 05:25N 14°28' W 060°52'0 0.0
2018-Jan-20 04:58N 14°28' W 060°52'0 0.0
2018-Jan-20 04:28N 14°28' W 060°52'0 0.0
2018-Jan-20 03:58N 14°28' W 060°52'0 0.0
2018-Jan-20 03:28N 14°28' W 060°52'0 0.0
2018-Jan-20 02:58N 14°28' W 060°52'0 0.0
2018-Jan-20 02:28N 14°28' W 060°52'0 0.0
2018-Jan-20 01:58N 14°28' W 060°52'0 0.0
2018-Jan-20 01:28N 14°28' W 060°52'0 0.0
2018-Jan-19 21:25N 14°28' W 060°52'0 0.0
2018-Jan-19 20:46N 14°28' W 060°52'0 0.0
2018-Jan-19 20:28N 14°28' W 060°52'0 0.0
2018-Jan-19 19:58N 14°28' W 060°52'0 0.0
2018-Jan-19 19:25N 14°28' W 060°52'0 0.0
2018-Jan-19 18:54N 14°28' W 060°52'0 0.0
2018-Jan-19 18:30N 14°28' W 060°52'0 0.0
2018-Jan-19 18:00N 14°28' W 060°52'0 0.0
2018-Jan-19 17:30N 14°28' W 060°52'0 0.0
2018-Jan-19 17:00N 14°28' W 060°52'0 0.0
2018-Jan-19 16:30N 14°28' W 060°52'0 0.0
2018-Jan-19 16:00N 14°28' W 060°52'0 0.0
2018-Jan-19 15:30N 14°28' W 060°52'0 0.2
2018-Jan-19 14:59N 14°28' W 060°52'1 2.6
2018-Jan-19 14:30N 14°27' W 060°53'1 2.5
2018-Jan-19 13:57N 14°26' W 060°53'0 0.0
2018-Jan-19 13:24N 14°26' W 060°53'0 0.0
2018-Jan-19 13:00N 14°26' W 060°53'0 0.0
2018-Jan-19 12:30N 14°26' W 060°53'0 0.0
2018-Jan-19 11:57N 14°26' W 060°53'0 0.0
2018-Jan-19 10:27N 14°26' W 060°53'0 0.0
2018-Jan-19 09:57N 14°26' W 060°53'0 0.0
2018-Jan-19 09:30N 14°26' W 060°53'0 0.0
2018-Jan-19 09:00N 14°26' W 060°53'0 0.0
2018-Jan-19 08:30N 14°26' W 060°53'0 0.0
2018-Jan-19 08:00N 14°26' W 060°53'0 0.0
2018-Jan-19 07:30N 14°26' W 060°53'0 0.0
2018-Jan-19 07:00N 14°26' W 060°53'0 0.0
2018-Jan-19 06:30N 14°26' W 060°53'0 0.0
2018-Jan-19 06:00N 14°26' W 060°53'0 0.0
2018-Jan-19 05:30N 14°26' W 060°53'0 0.0
2018-Jan-19 05:00N 14°26' W 060°53'0 0.0
2018-Jan-19 04:30N 14°26' W 060°53'0 0.0
2018-Jan-19 04:00N 14°26' W 060°53'0 0.0
2018-Jan-19 03:30N 14°26' W 060°53'0 0.0
2018-Jan-19 03:00N 14°26' W 060°53'0 0.0
2018-Jan-19 02:30N 14°26' W 060°53'0 0.0
2018-Jan-19 02:00N 14°26' W 060°53'0 0.0
2018-Jan-19 01:30N 14°26' W 060°53'0 0.0
2018-Jan-19 01:00N 14°26' W 060°53'0 0.0
2018-Jan-19 00:27N 14°26' W 060°53'0 0.0
2018-Jan-18 23:57N 14°26' W 060°53'0 0.0
2018-Jan-18 23:27N 14°26' W 060°53'0 0.0
2018-Jan-18 22:57N 14°26' W 060°53'0 0.0
2018-Jan-18 22:30N 14°26' W 060°53'0 0.0
2018-Jan-18 21:24N 14°26' W 060°53'1 3.3
2018-Jan-18 20:59N 14°24' W 060°53'1 1.7
2018-Jan-18 20:25N 14°24' W 060°53'0 0.0
2018-Jan-18 19:58N 14°24' W 060°53'0 0.0
2018-Jan-18 19:28N 14°24' W 060°53'0 0.0
2018-Jan-18 18:58N 14°24' W 060°53'0 0.0
2018-Jan-18 18:25N 14°24' W 060°53'2 4.5
2018-Jan-18 18:00N 14°22' W 060°53'3 6.8
2018-Jan-18 17:30N 14°19' W 060°53'  

Dump ship's entire track history